createdAt,value
2018-05-09T00:01:30.616Z,15.60
2018-05-09T00:03:59.611Z,15.60
2018-05-09T00:06:27.476Z,15.50
2018-05-09T00:08:55.338Z,15.50
2018-05-09T00:11:23.306Z,15.50
2018-05-09T00:13:51.173Z,15.50
2018-05-09T00:16:19.039Z,15.50
2018-05-09T00:18:46.905Z,15.50
2018-05-09T00:21:14.667Z,15.50
2018-05-09T00:23:42.534Z,15.50
2018-05-09T00:26:10.399Z,15.40
2018-05-09T00:28:38.264Z,15.50
2018-05-09T00:31:06.164Z,15.60
2018-05-09T00:33:34.818Z,15.70
2018-05-09T00:36:02.681Z,15.60
2018-05-09T00:38:30.545Z,15.70
2018-05-09T00:40:58.410Z,15.70
2018-05-09T00:43:26.483Z,15.60
2018-05-09T00:45:54.347Z,15.60
2018-05-09T00:48:22.214Z,15.60
2018-05-09T00:50:50.080Z,15.60
2018-05-09T00:53:17.947Z,15.50
2018-05-09T00:55:45.810Z,15.50
2018-05-09T00:58:14.499Z,15.60
2018-05-09T01:00:42.361Z,15.50
2018-05-09T01:03:10.229Z,15.50
2018-05-09T01:05:38.196Z,15.50
2018-05-09T01:08:06.678Z,15.50
2018-05-09T01:10:34.544Z,15.50
2018-05-09T01:13:02.409Z,15.40
2018-05-09T01:15:30.489Z,15.40
2018-05-09T01:17:58.346Z,15.30
2018-05-09T01:20:26.215Z,15.30
2018-05-09T01:22:54.078Z,15.30
2018-05-09T01:25:21.944Z,15.20
2018-05-09T01:27:49.808Z,15.20
2018-05-09T01:30:17.674Z,15.20
2018-05-09T01:32:45.542Z,15.10
2018-05-09T01:35:13.408Z,15.10
2018-05-09T01:37:41.480Z,15.10
2018-05-09T01:40:09.344Z,15.00
2018-05-09T01:42:37.210Z,15.00
2018-05-09T01:45:05.177Z,14.90
2018-05-09T01:47:33.043Z,14.90
2018-05-09T01:50:01.011Z,14.90
2018-05-09T01:52:28.879Z,14.90
2018-05-09T01:54:56.866Z,14.90
2018-05-09T01:57:25.528Z,14.70
2018-05-09T01:59:53.395Z,14.70
2018-05-09T02:02:21.261Z,14.70
2018-05-09T02:04:49.125Z,14.60
2018-05-09T02:07:17.504Z,14.60
2018-05-09T02:09:45.369Z,14.60
2018-05-09T02:12:13.234Z,14.60
2018-05-09T02:14:41.203Z,14.50
2018-05-09T02:17:09.071Z,14.40
2018-05-09T02:19:36.934Z,14.40
2018-05-09T02:22:04.805Z,14.40
2018-05-09T02:24:33.178Z,14.30
2018-05-09T02:27:01.051Z,14.30
2018-05-09T02:29:28.912Z,14.30
2018-05-09T02:31:56.781Z,14.30
2018-05-09T02:34:24.642Z,14.30
2018-05-09T02:36:52.508Z,14.20
2018-05-09T02:39:20.410Z,14.20
2018-05-09T02:41:49.062Z,14.10
2018-05-09T02:44:16.924Z,14.10
2018-05-09T02:46:44.795Z,14.10
2018-05-09T02:49:12.663Z,14.00
2018-05-09T02:51:40.626Z,14.00
2018-05-09T02:54:08.492Z,13.90
2018-05-09T02:56:36.359Z,13.90
2018-05-09T02:59:04.325Z,13.90
2018-05-09T03:01:32.192Z,13.80
2018-05-09T03:04:00.056Z,13.80
2018-05-09T03:06:27.926Z,13.80
2018-05-09T03:08:55.791Z,13.80
2018-05-09T03:11:23.657Z,13.80
2018-05-09T03:13:52.190Z,13.70
2018-05-09T03:16:20.001Z,13.70
2018-05-09T03:18:47.863Z,13.80
2018-05-09T03:21:15.833Z,13.70
2018-05-09T03:23:43.599Z,13.70
2018-05-09T03:26:11.396Z,13.60
2018-05-09T03:28:40.045Z,13.60
2018-05-09T03:31:07.918Z,13.60
2018-05-09T03:33:35.777Z,13.60
2018-05-09T03:36:03.831Z,13.60
2018-05-09T03:38:32.026Z,13.60
2018-05-09T03:41:00.092Z,13.60
2018-05-09T03:43:27.959Z,13.60
2018-05-09T03:45:55.824Z,13.60
2018-05-09T03:48:23.692Z,13.50
2018-05-09T03:50:51.472Z,13.50
2018-05-09T03:53:19.268Z,13.50
2018-05-09T03:55:48.024Z,13.50
2018-05-09T03:58:15.744Z,13.50
2018-05-09T04:00:43.465Z,13.50
2018-05-09T04:03:23.917Z,13.60
2018-05-09T04:06:04.455Z,13.70
2018-05-09T04:08:44.219Z,13.60
2018-05-09T04:11:11.942Z,13.70
2018-05-09T04:13:39.659Z,13.60
2018-05-09T04:16:08.207Z,13.70
2018-05-09T04:18:36.074Z,13.70
2018-05-09T04:21:04.248Z,13.80
2018-05-09T04:23:32.114Z,13.80
2018-05-09T04:25:59.844Z,13.90
2018-05-09T04:28:28.155Z,14.00
2018-05-09T04:30:56.022Z,14.10
2018-05-09T04:33:23.898Z,14.20
2018-05-09T04:35:51.658Z,14.20
2018-05-09T04:38:19.409Z,14.40
2018-05-09T04:40:47.163Z,14.40
2018-05-09T04:43:14.952Z,14.80
2018-05-09T04:45:43.307Z,16.00
2018-05-09T04:48:36.487Z,17.70
2018-05-09T04:51:21.874Z,19.30
2018-05-09T04:53:50.489Z,20.70
2018-05-09T04:56:18.205Z,22.10
2018-05-09T04:58:45.932Z,23.10
2018-05-09T05:01:13.703Z,23.60
2018-05-09T05:03:42.919Z,24.40
2018-05-09T05:06:12.127Z,25.30
2018-05-09T05:08:39.994Z,26.20
2018-05-09T05:11:07.752Z,27.20
2018-05-09T05:13:35.483Z,28.00
2018-05-09T05:16:03.243Z,28.90
2018-05-09T05:18:30.953Z,29.70
2018-05-09T05:20:58.824Z,30.60
2018-05-09T05:23:26.546Z,30.50
2018-05-09T05:25:54.320Z,30.30
2018-05-09T05:28:22.066Z,29.30
2018-05-09T05:30:49.782Z,29.70
2018-05-09T05:33:17.533Z,30.90
2018-05-09T05:35:45.303Z,31.90
2018-05-09T05:38:13.011Z,31.20
2018-05-09T05:40:40.743Z,30.70
2018-05-09T05:43:09.632Z,32.40
2018-05-09T05:45:38.160Z,32.70
2018-05-09T05:48:05.871Z,32.60
2018-05-09T05:50:33.633Z,33.20
2018-05-09T05:53:01.346Z,32.80
2018-05-09T05:55:29.099Z,32.90
2018-05-09T05:57:56.813Z,32.90
2018-05-09T06:00:24.605Z,32.30
2018-05-09T06:02:53.084Z,33.60
2018-05-09T06:05:21.649Z,34.00
2018-05-09T06:07:49.434Z,33.90
2018-05-09T06:10:17.140Z,33.90
2018-05-09T06:12:44.944Z,32.80
2018-05-09T06:15:12.706Z,32.80
2018-05-09T06:17:40.432Z,33.30
2018-05-09T06:20:08.187Z,33.60
2018-05-09T06:22:35.911Z,32.20
2018-05-09T06:25:03.755Z,32.40
2018-05-09T06:27:31.488Z,32.60
2018-05-09T06:29:59.383Z,33.20
2018-05-09T06:32:27.095Z,33.30
2018-05-09T06:34:54.852Z,32.90
2018-05-09T06:37:23.404Z,32.90
2018-05-09T06:39:51.463Z,32.90
2018-05-09T06:42:19.535Z,33.40
2018-05-09T06:44:47.404Z,34.50
2018-05-09T06:47:16.192Z,35.00
2018-05-09T06:49:44.161Z,34.50
2018-05-09T06:52:12.027Z,35.10
2018-05-09T06:54:39.893Z,35.00
2018-05-09T06:57:07.760Z,35.30
2018-05-09T06:59:35.628Z,35.20
2018-05-09T07:02:03.618Z,35.70
2018-05-09T07:04:31.461Z,36.60
2018-05-09T07:06:59.326Z,36.60
2018-05-09T07:09:27.706Z,36.00
2018-05-09T07:11:55.571Z,36.40
2018-05-09T07:14:23.444Z,36.20
2018-05-09T07:16:51.311Z,36.40
2018-05-09T07:19:19.169Z,35.90
2018-05-09T07:21:47.035Z,36.40
2018-05-09T07:24:14.902Z,36.80
2018-05-09T07:26:42.769Z,37.30
2018-05-09T07:29:10.635Z,37.20
2018-05-09T07:31:38.508Z,36.30
2018-05-09T07:34:06.469Z,35.00
2018-05-09T07:36:34.339Z,34.20
2018-05-09T07:39:02.202Z,34.20
2018-05-09T07:41:30.069Z,34.10
2018-05-09T07:43:57.936Z,34.40
2018-05-09T07:46:25.801Z,34.40
2018-05-09T07:48:53.949Z,33.70
2018-05-09T07:51:22.558Z,35.20
2018-05-09T07:53:50.422Z,35.20
2018-05-09T07:56:18.393Z,36.10
2018-05-09T07:58:46.258Z,36.50
2018-05-09T08:01:14.129Z,36.20
2018-05-09T08:03:42.232Z,36.00
2018-05-09T08:06:10.062Z,34.90
2018-05-09T08:08:37.927Z,35.30
2018-05-09T08:11:05.797Z,34.70
2018-05-09T08:13:33.556Z,35.40
2018-05-09T08:16:01.425Z,35.40
2018-05-09T08:18:29.296Z,35.10
2018-05-09T08:20:57.154Z,35.40
2018-05-09T08:23:25.534Z,35.50
2018-05-09T08:25:53.398Z,35.10
2018-05-09T08:28:21.269Z,33.90
2018-05-09T08:30:49.234Z,33.60
2018-05-09T08:33:17.182Z,34.20
2018-05-09T08:35:45.071Z,34.40
2018-05-09T08:38:13.345Z,33.60
2018-05-09T08:40:41.066Z,33.20
2018-05-09T08:43:08.773Z,33.40
2018-05-09T08:45:37.662Z,33.40
2018-05-09T08:48:05.388Z,33.10
2018-05-09T08:50:33.123Z,34.40
2018-05-09T08:53:02.105Z,35.30
2018-05-09T08:55:30.652Z,35.80
2018-05-09T08:57:58.339Z,35.70
2018-05-09T09:00:26.090Z,35.40
2018-05-09T09:02:53.947Z,34.60
2018-05-09T09:05:21.815Z,34.80
2018-05-09T09:07:49.694Z,35.80
2018-05-09T09:10:17.547Z,36.00
2018-05-09T09:12:45.413Z,35.20
2018-05-09T09:15:13.283Z,34.00
2018-05-09T09:17:41.143Z,32.80
2018-05-09T09:20:09.009Z,32.70
2018-05-09T09:22:36.876Z,32.60
2018-05-09T09:25:04.742Z,32.50
2018-05-09T09:27:32.607Z,32.20
2018-05-09T09:30:00.474Z,31.90
2018-05-09T09:32:28.571Z,31.70
2018-05-09T09:34:57.230Z,33.30
2018-05-09T09:37:25.096Z,33.30
2018-05-09T09:39:52.959Z,33.30
2018-05-09T09:42:20.826Z,33.80
2018-05-09T09:44:48.895Z,33.30
2018-05-09T09:47:16.761Z,32.80
2018-05-09T09:49:44.626Z,32.70
2018-05-09T09:52:12.493Z,32.70
2018-05-09T09:54:41.283Z,32.30
2018-05-09T09:57:09.248Z,32.20
2018-05-09T09:59:37.115Z,32.00
2018-05-09T10:02:04.979Z,32.20
2018-05-09T10:04:33.050Z,32.70
2018-05-09T10:07:01.018Z,33.50
2018-05-09T10:09:28.884Z,33.40
2018-05-09T10:11:56.748Z,33.10
2018-05-09T10:14:24.619Z,32.70
2018-05-09T10:16:52.481Z,32.50
2018-05-09T10:19:21.170Z,31.80
2018-05-09T10:21:49.134Z,31.80
2018-05-09T10:24:17.000Z,31.30
2018-05-09T10:26:44.868Z,31.30
2018-05-09T10:29:13.141Z,31.60
2018-05-09T10:31:41.006Z,31.60
2018-05-09T10:34:08.873Z,31.10
2018-05-09T10:36:36.738Z,30.70
2018-05-09T10:39:05.421Z,30.40
2018-05-09T10:41:33.492Z,30.60
2018-05-09T10:44:01.358Z,30.50
2018-05-09T10:46:29.226Z,30.90
2018-05-09T10:48:57.199Z,31.40
2018-05-09T10:51:24.914Z,31.60
2018-05-09T10:53:52.821Z,31.60
2018-05-09T10:56:20.687Z,31.20
2018-05-09T10:58:48.655Z,31.10
2018-05-09T11:01:16.524Z,31.10
2018-05-09T11:03:44.388Z,31.40
2018-05-09T11:06:12.457Z,32.20
2018-05-09T11:08:40.324Z,32.70
2018-05-09T11:11:08.192Z,33.60
2018-05-09T11:13:36.155Z,34.60
2018-05-09T11:16:04.123Z,35.20
2018-05-09T11:18:32.501Z,35.50
2018-05-09T11:21:00.367Z,35.40
2018-05-09T11:23:28.233Z,35.60
2018-05-09T11:25:56.305Z,35.30
2018-05-09T11:28:24.169Z,35.00
2018-05-09T11:30:52.034Z,35.30
2018-05-09T11:33:19.910Z,35.60
2018-05-09T11:35:48.073Z,35.10
2018-05-09T11:38:15.937Z,33.80
2018-05-09T11:40:43.804Z,32.60
2018-05-09T11:43:11.670Z,32.00
2018-05-09T11:45:39.538Z,31.40
2018-05-09T11:48:07.506Z,31.20
2018-05-09T11:50:35.370Z,30.80
2018-05-09T11:53:03.145Z,30.90
2018-05-09T11:55:31.000Z,30.80
2018-05-09T11:58:01.732Z,31.00
2018-05-09T12:00:29.602Z,31.80
2018-05-09T12:02:57.462Z,32.50
2018-05-09T12:05:25.329Z,32.40
2018-05-09T12:07:53.297Z,32.80
2018-05-09T12:10:21.284Z,32.90
2018-05-09T12:12:49.027Z,32.70
2018-05-09T12:15:16.893Z,32.60
2018-05-09T12:17:44.765Z,32.10
2018-05-09T12:20:12.624Z,31.80
2018-05-09T12:22:40.731Z,31.80
2018-05-09T12:25:09.381Z,31.50
2018-05-09T12:27:37.246Z,31.50
2018-05-09T12:30:05.317Z,31.50
2018-05-09T12:32:33.078Z,31.10
2018-05-09T12:35:01.035Z,31.20
2018-05-09T12:37:29.719Z,31.70
2018-05-09T12:39:58.524Z,32.40
2018-05-09T12:42:27.835Z,32.50
2018-05-09T12:44:56.094Z,32.00
2018-05-09T12:47:23.966Z,32.90
2018-05-09T12:49:51.825Z,34.00
2018-05-09T12:52:19.690Z,34.00
2018-05-09T12:54:47.760Z,33.30
2018-05-09T12:57:15.629Z,32.60
2018-05-09T12:59:43.494Z,32.80
2018-05-09T13:02:11.868Z,33.30
2018-05-09T13:04:39.735Z,33.80
2018-05-09T13:07:07.602Z,33.90
2018-05-09T13:09:35.669Z,34.30
2018-05-09T13:12:04.716Z,33.60
2018-05-09T13:14:32.631Z,33.20
2018-05-09T13:17:01.829Z,32.50
2018-05-09T13:19:30.615Z,32.40
2018-05-09T13:21:58.480Z,32.40
2018-05-09T13:24:26.453Z,33.10
2018-05-09T13:26:54.314Z,33.50
2018-05-09T13:29:22.180Z,33.20
2018-05-09T13:31:50.045Z,32.40
2018-05-09T13:34:17.912Z,31.40
2018-05-09T13:36:46.596Z,31.80
2018-05-09T13:39:16.640Z,31.80
2018-05-09T13:41:44.886Z,32.40
2018-05-09T13:44:14.092Z,32.80
2018-05-09T13:46:43.629Z,32.80
2018-05-09T13:49:13.789Z,31.80
2018-05-09T13:51:43.470Z,31.80
2018-05-09T13:54:12.204Z,32.00
2018-05-09T13:56:41.095Z,31.40
2018-05-09T13:59:09.880Z,31.10
2018-05-09T14:01:37.744Z,31.00
2018-05-09T14:04:05.609Z,30.90
2018-05-09T14:06:33.374Z,31.40
2018-05-09T14:09:02.297Z,31.60
2018-05-09T14:11:33.968Z,32.20
2018-05-09T14:14:01.887Z,32.20
2018-05-09T14:16:29.751Z,32.00
2018-05-09T14:18:57.618Z,31.90
2018-05-09T14:21:25.485Z,31.40
2018-05-09T14:23:53.271Z,31.20
2018-05-09T14:26:22.171Z,31.60
2018-05-09T14:28:50.688Z,32.20
2018-05-09T14:31:18.422Z,32.20
2018-05-09T14:33:46.998Z,33.30
2018-05-09T14:36:15.548Z,33.20
2018-05-09T14:38:43.265Z,33.20
2018-05-09T14:41:11.065Z,32.50
2018-05-09T14:43:39.546Z,30.90
2018-05-09T14:46:07.261Z,30.90
2018-05-09T14:48:35.180Z,30.40
2018-05-09T14:51:03.041Z,30.70
2018-05-09T14:53:31.013Z,31.30
2018-05-09T14:55:58.877Z,32.20
2018-05-09T14:58:26.743Z,33.10
2018-05-09T15:00:54.711Z,33.70
2018-05-09T15:03:22.576Z,33.60
2018-05-09T15:05:51.569Z,33.30
2018-05-09T15:08:19.434Z,33.40
2018-05-09T15:10:47.163Z,33.80
2018-05-09T15:13:14.900Z,34.00
2018-05-09T15:15:44.724Z,34.70
2018-05-09T15:18:14.642Z,34.70
2018-05-09T15:20:42.652Z,35.20
2018-05-09T15:23:10.447Z,35.10
2018-05-09T15:25:39.102Z,34.50
2018-05-09T15:28:06.848Z,34.40
2018-05-09T15:30:35.122Z,33.30
2018-05-09T15:33:04.459Z,32.10
2018-05-09T15:35:33.230Z,30.90
2018-05-09T15:38:01.953Z,30.80
2018-05-09T15:40:30.595Z,30.80
2018-05-09T15:42:59.977Z,30.80
2018-05-09T15:45:28.887Z,31.00
2018-05-09T15:47:56.604Z,31.00
2018-05-09T15:50:24.923Z,31.10
2018-05-09T15:52:53.634Z,31.20
2018-05-09T15:55:21.399Z,31.30
2018-05-09T15:57:49.964Z,31.40
2018-05-09T16:00:17.748Z,31.30
2018-05-09T16:02:46.235Z,31.10
2018-05-09T16:05:14.022Z,31.00
2018-05-09T16:07:41.749Z,31.40
2018-05-09T16:10:10.331Z,30.50
2018-05-09T16:12:38.820Z,30.10
2018-05-09T16:15:07.470Z,29.90
2018-05-09T16:17:35.187Z,29.80
2018-05-09T16:20:02.935Z,29.50
2018-05-09T16:22:31.687Z,29.20
2018-05-09T16:25:00.135Z,29.00
2018-05-09T16:27:27.851Z,29.00
2018-05-09T16:29:56.391Z,28.80
2018-05-09T16:32:24.168Z,28.80
2018-05-09T16:34:52.250Z,28.60
2018-05-09T16:37:20.108Z,28.40
2018-05-09T16:39:47.972Z,28.30
2018-05-09T16:42:15.838Z,28.00
2018-05-09T16:44:43.704Z,27.90
2018-05-09T16:47:11.568Z,28.00
2018-05-09T16:49:39.436Z,28.10
2018-05-09T16:52:07.403Z,28.20
2018-05-09T16:54:35.267Z,28.20
2018-05-09T16:57:03.133Z,28.20
2018-05-09T16:59:31.101Z,28.30
2018-05-09T17:01:58.967Z,28.20
2018-05-09T17:04:26.831Z,28.10
2018-05-09T17:06:55.518Z,27.90
2018-05-09T17:09:23.382Z,27.90
2018-05-09T17:11:51.350Z,27.90
2018-05-09T17:14:19.079Z,27.90
2018-05-09T17:16:46.980Z,27.90
2018-05-09T17:19:14.933Z,27.80
2018-05-09T17:24:54.930Z,27.70
2018-05-09T17:27:22.985Z,27.70
2018-05-09T17:29:50.853Z,27.50
2018-05-09T17:32:18.717Z,27.50
2018-05-09T17:34:46.787Z,27.40
2018-05-09T17:37:14.653Z,27.30
2018-05-09T17:39:42.518Z,27.30
2018-05-09T17:42:10.385Z,27.30
2018-05-09T17:44:38.250Z,27.20
2018-05-09T17:47:06.219Z,27.30
2018-05-09T17:49:33.982Z,27.20
2018-05-09T17:52:01.849Z,27.10
2018-05-09T17:54:29.714Z,27.00
2018-05-09T17:56:58.864Z,27.00
2018-05-09T17:59:28.107Z,26.80
2018-05-09T18:01:56.282Z,26.80
2018-05-09T18:04:24.048Z,26.70
2018-05-09T18:06:52.013Z,26.60
2018-05-09T18:09:19.877Z,26.60
2018-05-09T18:11:47.947Z,26.50
2018-05-09T18:14:15.924Z,26.40
2018-05-09T18:16:45.528Z,26.40
2018-05-09T18:19:14.615Z,26.30
2018-05-09T18:21:43.000Z,26.20
2018-05-09T18:24:10.861Z,26.10
2018-05-09T18:26:40.066Z,25.90
2018-05-09T18:29:08.739Z,25.60
2018-05-09T18:31:39.145Z,25.60
2018-05-09T18:34:07.851Z,25.50
2018-05-09T18:36:35.818Z,25.40
2018-05-09T18:39:03.642Z,25.10
2018-05-09T18:41:33.188Z,25.00
2018-05-09T18:44:01.870Z,24.90
2018-05-09T18:46:29.637Z,24.90
2018-05-09T18:48:57.469Z,24.90
2018-05-09T18:51:25.261Z,24.70
2018-05-09T18:53:55.451Z,24.60
2018-05-09T18:56:23.231Z,24.50
2018-05-09T18:58:50.970Z,24.40
2018-05-09T19:01:18.770Z,24.30
2018-05-09T19:03:46.533Z,24.20
2018-05-09T19:06:14.280Z,24.20
2018-05-09T19:08:42.927Z,24.10
2018-05-09T19:11:11.453Z,24.00
2018-05-09T19:13:39.176Z,24.00
2018-05-09T19:16:24.433Z,24.00
2018-05-09T19:18:52.176Z,23.90
2018-05-09T19:21:19.929Z,23.80
2018-05-09T19:23:47.689Z,23.80
2018-05-09T19:26:15.713Z,23.70
2018-05-09T19:28:43.512Z,23.70
2018-05-09T19:31:11.389Z,23.70
2018-05-09T19:33:39.258Z,23.60
2018-05-09T19:36:07.029Z,23.60
2018-05-09T19:38:34.851Z,23.50
2018-05-09T19:41:03.262Z,23.50
2018-05-09T19:43:31.772Z,23.40
2018-05-09T19:46:00.289Z,23.40
2018-05-09T19:48:28.161Z,23.40
2018-05-09T19:50:55.932Z,23.30
2018-05-09T19:53:23.647Z,23.20
2018-05-09T19:55:52.196Z,23.10
2018-05-09T19:58:19.908Z,23.10
2018-05-09T20:00:55.869Z,23.00
2018-05-09T20:03:25.447Z,22.90
2018-05-09T20:05:54.128Z,22.80
2018-05-09T20:08:22.619Z,22.70
2018-05-09T20:10:51.193Z,22.60
2018-05-09T20:13:19.747Z,22.70
2018-05-09T20:15:47.818Z,22.60
2018-05-09T20:18:15.990Z,22.80
2018-05-09T20:20:45.199Z,22.90
2018-05-09T20:23:13.160Z,23.00
2018-05-09T20:25:41.230Z,23.00
2018-05-09T20:28:09.094Z,23.00
2018-05-09T20:30:42.620Z,22.80
2018-05-09T20:33:11.266Z,22.80
2018-05-09T20:35:39.076Z,22.80
2018-05-09T20:38:08.439Z,22.70
2018-05-09T20:40:36.304Z,22.70
2018-05-09T20:43:05.129Z,22.60
2018-05-09T20:45:34.626Z,22.80
2018-05-09T20:48:03.280Z,22.80
2018-05-09T20:50:31.147Z,22.80
2018-05-09T20:52:59.117Z,22.70
2018-05-09T20:55:29.136Z,22.60
2018-05-09T20:58:01.057Z,22.60
2018-05-09T21:00:29.964Z,22.60
2018-05-09T21:03:00.064Z,22.50
2018-05-09T21:05:28.783Z,22.50
2018-05-09T21:07:57.610Z,22.40
2018-05-09T21:10:27.111Z,22.40
2018-05-09T21:12:55.044Z,22.30
2018-05-09T21:15:23.016Z,22.30
2018-05-09T21:17:50.875Z,22.30
2018-05-09T21:20:18.748Z,22.30
2018-05-09T21:22:46.608Z,22.30
2018-05-09T21:25:14.474Z,22.20
2018-05-09T21:27:42.485Z,22.20
2018-05-09T21:30:11.004Z,22.20
2018-05-09T21:32:38.788Z,22.20
2018-05-09T21:35:06.757Z,22.20
2018-05-09T21:37:34.621Z,22.20
2018-05-09T21:40:02.486Z,22.20
2018-05-09T21:42:30.557Z,22.10
2018-05-09T21:44:58.423Z,22.10
2018-05-09T21:47:26.287Z,22.00
2018-05-09T21:49:54.460Z,22.00
2018-05-09T21:52:22.327Z,22.00
2018-05-09T21:54:50.191Z,22.00
2018-05-09T21:57:18.401Z,21.90
2018-05-09T21:59:47.049Z,21.70
2018-05-09T22:02:14.917Z,21.70
2018-05-09T22:04:42.780Z,21.60
2018-05-09T22:07:10.647Z,21.60
2018-05-09T22:09:38.512Z,21.60
2018-05-09T22:12:06.377Z,21.60
2018-05-09T22:14:34.187Z,21.70
2018-05-09T22:17:02.827Z,21.60
2018-05-09T22:19:30.693Z,21.60
2018-05-09T22:21:58.658Z,21.60
2018-05-09T22:24:26.524Z,21.50
2018-05-09T22:26:54.698Z,21.50
2018-05-09T22:29:22.564Z,21.40
2018-05-09T22:31:50.429Z,21.30
2018-05-09T22:34:18.807Z,21.20
2018-05-09T22:36:46.672Z,21.20
2018-05-09T22:39:14.536Z,21.10
2018-05-09T22:41:42.293Z,21.10
2018-05-09T22:44:10.167Z,21.00
2018-05-09T22:46:38.031Z,20.90
2018-05-09T22:49:06.001Z,20.90
2018-05-09T22:51:33.864Z,21.00
2018-05-09T22:54:01.659Z,21.10
2018-05-09T22:56:30.246Z,21.20
2018-05-09T22:58:58.896Z,21.30
2018-05-09T23:01:26.762Z,21.20
2018-05-09T23:03:54.934Z,21.30
2018-05-09T23:06:22.902Z,21.30
2018-05-09T23:08:50.773Z,21.40
2018-05-09T23:11:18.734Z,21.30
2018-05-09T23:13:47.625Z,21.20
2018-05-09T23:16:15.490Z,21.10
2018-05-09T23:18:43.359Z,21.10
2018-05-09T23:21:11.221Z,20.90
2018-05-09T23:23:39.155Z,20.90
2018-05-09T23:26:07.789Z,20.70
2018-05-09T23:28:36.456Z,20.60
2018-05-09T23:31:04.323Z,20.60
2018-05-09T23:33:32.395Z,20.50
2018-05-09T23:36:00.267Z,20.40
2018-05-09T23:38:29.045Z,20.20
2018-05-09T23:40:56.910Z,20.10
2018-05-09T23:43:24.776Z,20.00
2018-05-09T23:45:52.653Z,19.80
2018-05-09T23:48:21.635Z,19.60
2018-05-09T23:50:49.607Z,19.50
2018-05-09T23:53:18.286Z,19.50
2018-05-09T23:55:46.201Z,19.40
2018-05-09T23:58:14.839Z,19.20
